sensor_id;sensor_type;location;lat;lon;timestamp;pressure;altitude;pressure_sealevel;temperature;humidity
71299;BME280;59083;47.974;21.722;2023-03-14T00:00:49;100064.28;;;4.67;67.20
71299;BME280;59083;47.974;21.722;2023-03-14T00:03:50;100059.00;;;4.67;67.03
71299;BME280;59083;47.974;21.722;2023-03-14T00:06:51;100051.06;;;4.67;67.05
71299;BME280;59083;47.974;21.722;2023-03-14T00:09:53;100052.69;;;4.68;66.87
71299;BME280;59083;47.974;21.722;2023-03-14T00:12:54;100044.63;;;4.69;66.75
71299;BME280;59083;47.974;21.722;2023-03-14T00:16:01;100048.25;;;4.68;66.78
71299;BME280;59083;47.974;21.722;2023-03-14T00:19:03;100052.06;;;4.66;67.55
71299;BME280;59083;47.974;21.722;2023-03-14T00:22:04;100050.03;;;4.60;67.59
71299;BME280;59083;47.974;21.722;2023-03-14T00:25:06;100048.59;;;4.65;67.56
71299;BME280;59083;47.974;21.722;2023-03-14T00:28:08;100043.81;;;4.69;67.79
71299;BME280;59083;47.974;21.722;2023-03-14T00:31:11;100036.56;;;4.71;67.48
71299;BME280;59083;47.974;21.722;2023-03-14T00:34:14;100033.59;;;4.66;67.51
71299;BME280;59083;47.974;21.722;2023-03-14T00:37:15;100026.94;;;4.62;67.47
71299;BME280;59083;47.974;21.722;2023-03-14T00:40:17;100031.09;;;4.64;67.54
71299;BME280;59083;47.974;21.722;2023-03-14T00:43:18;100030.25;;;4.64;67.27
71299;BME280;59083;47.974;21.722;2023-03-14T00:46:22;100022.69;;;4.69;67.49
71299;BME280;59083;47.974;21.722;2023-03-14T00:49:23;100018.41;;;4.68;67.03
71299;BME280;59083;47.974;21.722;2023-03-14T00:52:25;100009.47;;;4.61;67.42
71299;BME280;59083;47.974;21.722;2023-03-14T00:55:26;100002.53;;;4.60;67.18
71299;BME280;59083;47.974;21.722;2023-03-14T00:58:28;99994.28;;;4.54;67.08
71299;BME280;59083;47.974;21.722;2023-03-14T01:01:29;99987.66;;;4.50;67.71
71299;BME280;59083;47.974;21.722;2023-03-14T01:04:31;99980.06;;;4.47;67.35
71299;BME280;59083;47.974;21.722;2023-03-14T01:07:32;99986.66;;;4.43;67.49
71299;BME280;59083;47.974;21.722;2023-03-14T01:10:37;99976.72;;;4.37;67.55
71299;BME280;59083;47.974;21.722;2023-03-14T01:13:39;99978.69;;;4.35;68.27
71299;BME280;59083;47.974;21.722;2023-03-14T01:16:41;99968.13;;;4.35;67.99
71299;BME280;59083;47.974;21.722;2023-03-14T01:19:42;99967.78;;;4.30;67.87
71299;BME280;59083;47.974;21.722;2023-03-14T01:22:44;99964.81;;;4.33;67.73
71299;BME280;59083;47.974;21.722;2023-03-14T01:25:45;99961.00;;;4.28;67.73
71299;BME280;59083;47.974;21.722;2023-03-14T01:28:47;99952.22;;;4.19;68.05
71299;BME280;59083;47.974;21.722;2023-03-14T01:31:49;99953.34;;;4.16;68.19
71299;BME280;59083;47.974;21.722;2023-03-14T01:34:51;99944.59;;;4.08;69.43
71299;BME280;59083;47.974;21.722;2023-03-14T01:37:53;99947.50;;;3.97;69.24
71299;BME280;59083;47.974;21.722;2023-03-14T01:40:56;99949.16;;;3.98;69.44
71299;BME280;59083;47.974;21.722;2023-03-14T01:43:57;99939.22;;;3.92;69.78
71299;BME280;59083;47.974;21.722;2023-03-14T01:46:59;99933.97;;;3.92;69.95
71299;BME280;59083;47.974;21.722;2023-03-14T01:50:07;99935.28;;;3.96;70.22
71299;BME280;59083;47.974;21.722;2023-03-14T01:53:09;99932.31;;;3.91;70.13
71299;BME280;59083;47.974;21.722;2023-03-14T01:56:13;99922.88;;;3.88;70.34
71299;BME280;59083;47.974;21.722;2023-03-14T01:59:16;99923.34;;;3.84;70.23
71299;BME280;59083;47.974;21.722;2023-03-14T02:02:18;99917.13;;;3.85;70.09
71299;BME280;59083;47.974;21.722;2023-03-14T02:05:23;99901.59;;;3.82;70.28
71299;BME280;59083;47.974;21.722;2023-03-14T02:08:27;99910.44;;;3.72;70.14
71299;BME280;59083;47.974;21.722;2023-03-14T02:11:29;99915.72;;;3.72;70.41
71299;BME280;59083;47.974;21.722;2023-03-14T02:14:33;99923.94;;;3.69;71.23
71299;BME280;59083;47.974;21.722;2023-03-14T02:17:37;99919.69;;;3.77;71.03
71299;BME280;59083;47.974;21.722;2023-03-14T02:30:24;99908.31;;;3.76;70.36
71299;BME280;59083;47.974;21.722;2023-03-14T02:33:26;99902.41;;;3.74;71.56
71299;BME280;59083;47.974;21.722;2023-03-14T02:36:28;99895.78;;;3.70;71.32
71299;BME280;59083;47.974;21.722;2023-03-14T02:39:36;99878.81;;;3.64;72.13
71299;BME280;59083;47.974;21.722;2023-03-14T02:42:38;99879.78;;;3.63;71.62
71299;BME280;59083;47.974;21.722;2023-03-14T02:45:44;99867.56;;;3.62;71.52
71299;BME280;59083;47.974;21.722;2023-03-14T02:49:07;99864.41;;;3.59;71.49
71299;BME280;59083;47.974;21.722;2023-03-14T02:52:09;99858.34;;;3.58;71.18
71299;BME280;59083;47.974;21.722;2023-03-14T02:55:11;99863.00;;;3.64;70.79
71299;BME280;59083;47.974;21.722;2023-03-14T02:58:14;99863.28;;;3.61;71.10
71299;BME280;59083;47.974;21.722;2023-03-14T03:01:17;99844.69;;;3.63;70.87
71299;BME280;59083;47.974;21.722;2023-03-14T03:04:18;99840.06;;;3.65;71.03
71299;BME280;59083;47.974;21.722;2023-03-14T03:07:20;99839.06;;;3.58;71.08
71299;BME280;59083;47.974;21.722;2023-03-14T03:10:21;99833.13;;;3.56;71.29
71299;BME280;59083;47.974;21.722;2023-03-14T03:13:23;99833.97;;;3.56;71.37
71299;BME280;59083;47.974;21.722;2023-03-14T03:16:25;99823.72;;;3.53;71.20
71299;BME280;59083;47.974;21.722;2023-03-14T03:19:26;99826.34;;;3.53;71.55
71299;BME280;59083;47.974;21.722;2023-03-14T03:22:27;99826.00;;;3.48;71.64
71299;BME280;59083;47.974;21.722;2023-03-14T03:25:29;99820.72;;;3.48;72.24
71299;BME280;59083;47.974;21.722;2023-03-14T03:28:30;99815.78;;;3.45;72.09
71299;BME280;59083;47.974;21.722;2023-03-14T03:31:32;99806.91;;;3.46;71.77
71299;BME280;59083;47.974;21.722;2023-03-14T03:34:34;99802.25;;;3.40;71.76
71299;BME280;59083;47.974;21.722;2023-03-14T03:37:36;99805.53;;;3.42;71.99
71299;BME280;59083;47.974;21.722;2023-03-14T03:40:39;99805.41;;;3.44;72.25
71299;BME280;59083;47.974;21.722;2023-03-14T03:43:42;99804.91;;;3.48;71.09
71299;BME280;59083;47.974;21.722;2023-03-14T03:46:43;99800.47;;;3.49;71.27
71299;BME280;59083;47.974;21.722;2023-03-14T03:49:45;99788.81;;;3.51;71.47
71299;BME280;59083;47.974;21.722;2023-03-14T03:52:46;99776.62;;;3.50;70.94
71299;BME280;59083;47.974;21.722;2023-03-14T03:55:47;99774.34;;;3.55;71.17
71299;BME280;59083;47.974;21.722;2023-03-14T03:58:48;99775.31;;;3.54;71.21
71299;BME280;59083;47.974;21.722;2023-03-14T04:01:50;99758.75;;;3.62;70.87
71299;BME280;59083;47.974;21.722;2023-03-14T04:04:51;99766.50;;;3.63;70.91
71299;BME280;59083;47.974;21.722;2023-03-14T04:07:52;99755.97;;;3.63;71.03
71299;BME280;59083;47.974;21.722;2023-03-14T04:10:59;99752.00;;;3.67;70.79
71299;BME280;59083;47.974;21.722;2023-03-14T04:14:02;99753.03;;;3.74;70.49
71299;BME280;59083;47.974;21.722;2023-03-14T04:17:04;99748.41;;;3.77;70.50
71299;BME280;59083;47.974;21.722;2023-03-14T04:20:06;99740.50;;;3.77;71.40
71299;BME280;59083;47.974;21.722;2023-03-14T04:23:11;99738.56;;;3.79;70.49
71299;BME280;59083;47.974;21.722;2023-03-14T04:26:13;99740.34;;;3.78;70.59
71299;BME280;59083;47.974;21.722;2023-03-14T04:29:15;99734.41;;;3.76;70.67
71299;BME280;59083;47.974;21.722;2023-03-14T04:32:17;99731.63;;;3.78;71.38
71299;BME280;59083;47.974;21.722;2023-03-14T04:35:19;99722.53;;;3.72;71.48
71299;BME280;59083;47.974;21.722;2023-03-14T04:38:20;99714.78;;;3.70;71.90
71299;BME280;59083;47.974;21.722;2023-03-14T04:41:22;99707.56;;;3.64;71.99
71299;BME280;59083;47.974;21.722;2023-03-14T04:44:24;99700.78;;;3.62;71.24
71299;BME280;59083;47.974;21.722;2023-03-14T04:47:26;99698.63;;;3.57;71.66
71299;BME280;59083;47.974;21.722;2023-03-14T04:50:28;99696.16;;;3.56;71.66
71299;BME280;59083;47.974;21.722;2023-03-14T04:53:30;99695.97;;;3.49;72.05
71299;BME280;59083;47.974;21.722;2023-03-14T04:56:32;99699.91;;;3.45;71.87
71299;BME280;59083;47.974;21.722;2023-03-14T04:59:35;99678.84;;;3.45;71.80
71299;BME280;59083;47.974;21.722;2023-03-14T05:02:38;99685.75;;;3.46;72.01
71299;BME280;59083;47.974;21.722;2023-03-14T05:05:40;99679.84;;;3.52;71.72
71299;BME280;59083;47.974;21.722;2023-03-14T05:08:41;99684.12;;;3.53;71.68
71299;BME280;59083;47.974;21.722;2023-03-14T05:11:43;99682.84;;;3.57;72.05
71299;BME280;59083;47.974;21.722;2023-03-14T05:14:45;99676.25;;;3.61;71.98
71299;BME280;59083;47.974;21.722;2023-03-14T05:17:47;99678.25;;;3.67;72.40
71299;BME280;59083;47.974;21.722;2023-03-14T05:20:52;99672.81;;;3.77;72.02
71299;BME280;59083;47.974;21.722;2023-03-14T05:23:54;99675.34;;;3.87;72.05
71299;BME280;59083;47.974;21.722;2023-03-14T05:26:56;99681.78;;;3.92;73.30
71299;BME280;59083;47.974;21.722;2023-03-14T05:29:57;99674.69;;;4.01;72.79
71299;BME280;59083;47.974;21.722;2023-03-14T05:32:59;99677.34;;;4.17;72.70
71299;BME280;59083;47.974;21.722;2023-03-14T05:36:02;99683.09;;;4.29;71.79
71299;BME280;59083;47.974;21.722;2023-03-14T05:39:04;99679.00;;;4.42;71.41
71299;BME280;59083;47.974;21.722;2023-03-14T05:42:06;99682.97;;;4.54;70.98
71299;BME280;59083;47.974;21.722;2023-03-14T05:45:09;99676.19;;;4.60;70.34
71299;BME280;59083;47.974;21.722;2023-03-14T05:48:10;99666.78;;;4.66;69.59
71299;BME280;59083;47.974;21.722;2023-03-14T05:51:12;99677.97;;;4.76;69.43
71299;BME280;59083;47.974;21.722;2023-03-14T05:54:15;99674.66;;;4.74;69.62
71299;BME280;59083;47.974;21.722;2023-03-14T05:57:20;99676.62;;;4.80;68.76
71299;BME280;59083;47.974;21.722;2023-03-14T06:00:26;99668.72;;;4.88;68.58
71299;BME280;59083;47.974;21.722;2023-03-14T06:03:30;99669.34;;;4.90;68.78
71299;BME280;59083;47.974;21.722;2023-03-14T06:06:43;99674.31;;;4.93;68.82
71299;BME280;59083;47.974;21.722;2023-03-14T06:09:53;99670.03;;;4.92;69.09
71299;BME280;59083;47.974;21.722;2023-03-14T06:12:55;99675.28;;;5.00;68.68
71299;BME280;59083;47.974;21.722;2023-03-14T06:15:56;99677.56;;;5.03;68.46
71299;BME280;59083;47.974;21.722;2023-03-14T06:18:58;99681.53;;;5.07;68.03
71299;BME280;59083;47.974;21.722;2023-03-14T06:21:59;99686.31;;;5.12;68.04
71299;BME280;59083;47.974;21.722;2023-03-14T06:25:01;99679.53;;;5.17;68.18
71299;BME280;59083;47.974;21.722;2023-03-14T06:28:03;99681.19;;;5.18;67.57
71299;BME280;59083;47.974;21.722;2023-03-14T06:31:05;99698.34;;;5.22;68.54
71299;BME280;59083;47.974;21.722;2023-03-14T06:34:07;99683.09;;;5.32;67.54
71299;BME280;59083;47.974;21.722;2023-03-14T06:37:09;99677.12;;;5.38;68.30
71299;BME280;59083;47.974;21.722;2023-03-14T06:40:11;99671.50;;;5.41;67.14
71299;BME280;59083;47.974;21.722;2023-03-14T06:43:16;99665.53;;;5.48;67.68
71299;BME280;59083;47.974;21.722;2023-03-14T06:46:18;99669.50;;;5.52;67.41
71299;BME280;59083;47.974;21.722;2023-03-14T06:49:19;99662.03;;;5.55;67.43
71299;BME280;59083;47.974;21.722;2023-03-14T06:52:21;99652.88;;;5.66;66.52
71299;BME280;59083;47.974;21.722;2023-03-14T06:55:23;99662.44;;;5.75;66.99
71299;BME280;59083;47.974;21.722;2023-03-14T06:58:24;99670.66;;;5.80;66.51
71299;BME280;59083;47.974;21.722;2023-03-14T07:01:27;99660.03;;;5.88;66.22
71299;BME280;59083;47.974;21.722;2023-03-14T07:04:30;99652.69;;;5.98;65.91
71299;BME280;59083;47.974;21.722;2023-03-14T07:07:31;99649.13;;;6.14;65.59
71299;BME280;59083;47.974;21.722;2023-03-14T07:10:33;99648.59;;;6.18;65.48
71299;BME280;59083;47.974;21.722;2023-03-14T07:13:34;99645.16;;;6.33;65.20
71299;BME280;59083;47.974;21.722;2023-03-14T07:16:37;99629.28;;;6.33;64.71
71299;BME280;59083;47.974;21.722;2023-03-14T07:19:38;99636.19;;;6.42;64.88
71299;BME280;59083;47.974;21.722;2023-03-14T07:22:40;99632.44;;;6.51;64.99
71299;BME280;59083;47.974;21.722;2023-03-14T07:25:41;99623.22;;;6.61;66.01
71299;BME280;59083;47.974;21.722;2023-03-14T07:28:43;99618.59;;;6.78;65.21
71299;BME280;59083;47.974;21.722;2023-03-14T07:31:46;99610.50;;;6.94;64.13
71299;BME280;59083;47.974;21.722;2023-03-14T07:34:48;99604.72;;;7.05;64.64
71299;BME280;59083;47.974;21.722;2023-03-14T07:37:49;99607.25;;;7.14;64.79
71299;BME280;59083;47.974;21.722;2023-03-14T07:41:03;99599.22;;;7.22;64.68
71299;BME280;59083;47.974;21.722;2023-03-14T07:44:06;99603.06;;;7.34;63.99
71299;BME280;59083;47.974;21.722;2023-03-14T07:47:07;99596.81;;;7.41;64.67
71299;BME280;59083;47.974;21.722;2023-03-14T07:50:09;99589.81;;;7.55;63.59
71299;BME280;59083;47.974;21.722;2023-03-14T07:53:11;99588.75;;;7.71;64.01
71299;BME280;59083;47.974;21.722;2023-03-14T07:56:13;99582.78;;;7.83;64.79
71299;BME280;59083;47.974;21.722;2023-03-14T07:59:14;99577.16;;;7.93;64.44
71299;BME280;59083;47.974;21.722;2023-03-14T08:02:15;99572.63;;;8.15;61.90
71299;BME280;59083;47.974;21.722;2023-03-14T08:05:17;99568.63;;;8.47;61.01
71299;BME280;59083;47.974;21.722;2023-03-14T08:08:18;99566.56;;;9.11;55.79
71299;BME280;59083;47.974;21.722;2023-03-14T08:11:20;99574.53;;;9.98;51.38
71299;BME280;59083;47.974;21.722;2023-03-14T08:14:21;99557.38;;;10.47;47.51
71299;BME280;59083;47.974;21.722;2023-03-14T08:17:25;99561.63;;;10.61;47.49
71299;BME280;59083;47.974;21.722;2023-03-14T08:20:28;99548.69;;;10.77;46.13
71299;BME280;59083;47.974;21.722;2023-03-14T08:23:30;99551.13;;;10.92;45.24
71299;BME280;59083;47.974;21.722;2023-03-14T08:26:31;99551.91;;;10.99;44.87
71299;BME280;59083;47.974;21.722;2023-03-14T08:29:32;99544.28;;;11.16;44.16
71299;BME280;59083;47.974;21.722;2023-03-14T08:32:33;99545.69;;;11.18;44.13
71299;BME280;59083;47.974;21.722;2023-03-14T08:35:37;99545.19;;;11.35;43.91
71299;BME280;59083;47.974;21.722;2023-03-14T08:38:38;99543.94;;;11.44;44.40
71299;BME280;59083;47.974;21.722;2023-03-14T08:41:39;99543.94;;;11.44;44.41
71299;BME280;59083;47.974;21.722;2023-03-14T08:44:44;99547.12;;;11.59;44.17
71299;BME280;59083;47.974;21.722;2023-03-14T08:47:46;99530.75;;;11.49;43.23
71299;BME280;59083;47.974;21.722;2023-03-14T08:50:47;99540.19;;;11.45;43.02
71299;BME280;59083;47.974;21.722;2023-03-14T08:53:49;99533.16;;;11.57;43.08
71299;BME280;59083;47.974;21.722;2023-03-14T08:56:50;99537.69;;;11.56;43.11
71299;BME280;59083;47.974;21.722;2023-03-14T08:59:51;99524.97;;;11.52;43.31
71299;BME280;59083;47.974;21.722;2023-03-14T09:02:52;99525.12;;;11.64;43.56
71299;BME280;59083;47.974;21.722;2023-03-14T09:05:54;99528.22;;;11.60;43.02
71299;BME280;59083;47.974;21.722;2023-03-14T09:08:55;99519.97;;;11.62;43.05
71299;BME280;59083;47.974;21.722;2023-03-14T09:11:56;99513.03;;;11.61;44.26
71299;BME280;59083;47.974;21.722;2023-03-14T09:14:57;99511.97;;;11.62;43.96
71299;BME280;59083;47.974;21.722;2023-03-14T09:17:59;99505.66;;;11.56;43.10
71299;BME280;59083;47.974;21.722;2023-03-14T09:21:00;99501.50;;;11.67;42.52
71299;BME280;59083;47.974;21.722;2023-03-14T09:24:01;99509.53;;;11.92;42.98
71299;BME280;59083;47.974;21.722;2023-03-14T09:27:02;99505.63;;;11.94;42.43
71299;BME280;59083;47.974;21.722;2023-03-14T09:30:04;99504.97;;;11.99;42.62
71299;BME280;59083;47.974;21.722;2023-03-14T09:33:05;99492.53;;;12.11;42.49
71299;BME280;59083;47.974;21.722;2023-03-14T09:36:07;99483.88;;;12.16;41.92
71299;BME280;59083;47.974;21.722;2023-03-14T09:39:08;99482.13;;;12.28;41.90
71299;BME280;59083;47.974;21.722;2023-03-14T09:42:14;99482.53;;;12.25;41.92
71299;BME280;59083;47.974;21.722;2023-03-14T09:45:25;99476.88;;;12.15;42.29
71299;BME280;59083;47.974;21.722;2023-03-14T09:48:29;99478.91;;;12.19;41.76
71299;BME280;59083;47.974;21.722;2023-03-14T09:51:31;99483.75;;;12.29;41.68
71299;BME280;59083;47.974;21.722;2023-03-14T09:54:39;99449.19;;;12.34;41.60
71299;BME280;59083;47.974;21.722;2023-03-14T09:57:44;99467.22;;;12.75;40.78
71299;BME280;59083;47.974;21.722;2023-03-14T10:00:47;99455.38;;;13.01;39.80
71299;BME280;59083;47.974;21.722;2023-03-14T10:03:48;99448.97;;;13.20;39.74
71299;BME280;59083;47.974;21.722;2023-03-14T10:06:51;99455.91;;;13.51;38.96
71299;BME280;59083;47.974;21.722;2023-03-14T10:09:53;99449.53;;;13.63;39.04
71299;BME280;59083;47.974;21.722;2023-03-14T10:16:02;99433.97;;;13.72;37.99
71299;BME280;59083;47.974;21.722;2023-03-14T10:19:09;99432.78;;;13.80;38.26
71299;BME280;59083;47.974;21.722;2023-03-14T10:22:14;99425.81;;;13.90;37.70
71299;BME280;59083;47.974;21.722;2023-03-14T10:25:27;99422.09;;;14.03;37.25
71299;BME280;59083;47.974;21.722;2023-03-14T10:28:37;99413.09;;;14.32;36.56
71299;BME280;59083;47.974;21.722;2023-03-14T10:31:52;99406.94;;;14.43;37.38
71299;BME280;59083;47.974;21.722;2023-03-14T10:35:07;99403.41;;;14.55;37.09
71299;BME280;59083;47.974;21.722;2023-03-14T10:38:13;99411.56;;;14.60;36.15
71299;BME280;59083;47.974;21.722;2023-03-14T10:41:19;99385.75;;;14.70;36.69
71299;BME280;59083;47.974;21.722;2023-03-14T10:44:25;99387.16;;;14.73;37.25
71299;BME280;59083;47.974;21.722;2023-03-14T10:47:27;99382.56;;;14.85;36.42
71299;BME280;59083;47.974;21.722;2023-03-14T10:50:32;99377.19;;;14.85;36.71
71299;BME280;59083;47.974;21.722;2023-03-14T10:53:48;99368.09;;;14.86;37.05
71299;BME280;59083;47.974;21.722;2023-03-14T10:57:00;99362.88;;;14.79;36.07
71299;BME280;59083;47.974;21.722;2023-03-14T11:00:02;99351.34;;;14.79;36.27
71299;BME280;59083;47.974;21.722;2023-03-14T11:03:12;99346.66;;;14.86;36.68
71299;BME280;59083;47.974;21.722;2023-03-14T11:10:00;99333.97;;;14.98;37.70
71299;BME280;59083;47.974;21.722;2023-03-14T11:13:24;99323.50;;;15.13;36.82
71299;BME280;59083;47.974;21.722;2023-03-14T11:20:45;99300.63;;;14.94;36.90
71299;BME280;59083;47.974;21.722;2023-03-14T11:30:39;99296.91;;;15.12;37.06
71299;BME280;59083;47.974;21.722;2023-03-14T11:36:59;99270.97;;;15.17;37.30
71299;BME280;59083;47.974;21.722;2023-03-14T11:40:17;99251.78;;;15.25;37.85
71299;BME280;59083;47.974;21.722;2023-03-14T11:43:44;99257.22;;;15.30;38.02
71299;BME280;59083;47.974;21.722;2023-03-14T11:50:20;99233.31;;;15.51;38.27
71299;BME280;59083;47.974;21.722;2023-03-14T11:53:36;99239.31;;;15.53;37.45
71299;BME280;59083;47.974;21.722;2023-03-14T11:56:52;99232.78;;;15.49;37.70
71299;BME280;59083;47.974;21.722;2023-03-14T12:03:17;99215.97;;;15.75;37.70
71299;BME280;59083;47.974;21.722;2023-03-14T12:06:28;99214.97;;;15.81;37.57
71299;BME280;59083;47.974;21.722;2023-03-14T12:09:33;99204.84;;;15.88;37.75
71299;BME280;59083;47.974;21.722;2023-03-14T12:12:35;99195.78;;;15.94;37.75
71299;BME280;59083;47.974;21.722;2023-03-14T12:15:46;99199.59;;;15.98;37.95
71299;BME280;59083;47.974;21.722;2023-03-14T12:18:49;99194.63;;;15.90;37.78
71299;BME280;59083;47.974;21.722;2023-03-14T12:22:01;99190.94;;;15.96;37.87
71299;BME280;59083;47.974;21.722;2023-03-14T12:25:27;99181.03;;;15.97;37.71
71299;BME280;59083;47.974;21.722;2023-03-14T12:28:31;99169.78;;;16.00;37.77
71299;BME280;59083;47.974;21.722;2023-03-14T12:31:37;99167.16;;;16.05;37.55
71299;BME280;59083;47.974;21.722;2023-03-14T12:34:40;99165.91;;;16.18;37.60
71299;BME280;59083;47.974;21.722;2023-03-14T12:37:45;99155.91;;;16.13;37.33
71299;BME280;59083;47.974;21.722;2023-03-14T12:40:55;99146.56;;;16.16;37.99
71299;BME280;59083;47.974;21.722;2023-03-14T12:51:02;99128.47;;;16.38;37.38
71299;BME280;59083;47.974;21.722;2023-03-14T12:54:07;99113.88;;;16.29;37.66
71299;BME280;59083;47.974;21.722;2023-03-14T13:00:31;99119.16;;;16.19;37.99
71299;BME280;59083;47.974;21.722;2023-03-14T13:04:03;99120.97;;;16.13;38.14
71299;BME280;59083;47.974;21.722;2023-03-14T13:07:03;99114.78;;;16.12;37.74
71299;BME280;59083;47.974;21.722;2023-03-14T13:10:13;99109.09;;;16.36;37.92
71299;BME280;59083;47.974;21.722;2023-03-14T13:13:23;99095.81;;;16.56;37.31
71299;BME280;59083;47.974;21.722;2023-03-14T13:16:27;99097.53;;;16.67;37.26
71299;BME280;59083;47.974;21.722;2023-03-14T13:19:30;99090.56;;;16.71;37.21
71299;BME280;59083;47.974;21.722;2023-03-14T13:22:34;99085.72;;;16.68;37.50
71299;BME280;59083;47.974;21.722;2023-03-14T13:25:37;99088.81;;;16.55;37.72
71299;BME280;59083;47.974;21.722;2023-03-14T13:28:39;99052.53;;;16.26;37.86
71299;BME280;59083;47.974;21.722;2023-03-14T13:31:44;99088.44;;;16.41;38.01
71299;BME280;59083;47.974;21.722;2023-03-14T13:34:46;99088.69;;;16.40;38.00
71299;BME280;59083;47.974;21.722;2023-03-14T13:38:00;99098.66;;;16.39;37.45
71299;BME280;59083;47.974;21.722;2023-03-14T13:41:06;99092.44;;;16.39;37.45
71299;BME280;59083;47.974;21.722;2023-03-14T13:44:14;99080.75;;;16.55;37.67
71299;BME280;59083;47.974;21.722;2023-03-14T13:47:18;99073.31;;;16.67;37.61
71299;BME280;59083;47.974;21.722;2023-03-14T13:50:20;99076.09;;;16.82;37.69
71299;BME280;59083;47.974;21.722;2023-03-14T13:53:22;99064.31;;;16.88;36.94
71299;BME280;59083;47.974;21.722;2023-03-14T13:56:26;99061.59;;;16.83;37.24
71299;BME280;59083;47.974;21.722;2023-03-14T13:59:33;99066.72;;;16.85;37.05
71299;BME280;59083;47.974;21.722;2023-03-14T14:02:37;99072.06;;;16.80;37.07
71299;BME280;59083;47.974;21.722;2023-03-14T14:05:39;99063.66;;;16.71;37.07
71299;BME280;59083;47.974;21.722;2023-03-14T14:08:42;99060.66;;;16.63;37.12
71299;BME280;59083;47.974;21.722;2023-03-14T14:11:55;99053.78;;;16.45;37.54
71299;BME280;59083;47.974;21.722;2023-03-14T14:15:02;99045.38;;;16.36;37.55
71299;BME280;59083;47.974;21.722;2023-03-14T14:18:07;99053.69;;;16.35;37.21
71299;BME280;59083;47.974;21.722;2023-03-14T14:21:12;99048.31;;;16.35;37.80
71299;BME280;59083;47.974;21.722;2023-03-14T14:24:15;99037.00;;;16.33;37.60
71299;BME280;59083;47.974;21.722;2023-03-14T14:27:37;99032.69;;;16.32;37.73
71299;BME280;59083;47.974;21.722;2023-03-14T14:30:40;99028.13;;;16.32;38.00
71299;BME280;59083;47.974;21.722;2023-03-14T14:33:43;99031.06;;;16.31;37.94
71299;BME280;59083;47.974;21.722;2023-03-14T14:36:45;99020.06;;;16.32;38.00
71299;BME280;59083;47.974;21.722;2023-03-14T14:39:52;99016.56;;;16.32;38.30
71299;BME280;59083;47.974;21.722;2023-03-14T14:42:54;99023.00;;;16.31;38.32
71299;BME280;59083;47.974;21.722;2023-03-14T14:45:56;99020.84;;;16.28;38.62
71299;BME280;59083;47.974;21.722;2023-03-14T14:49:08;99021.94;;;16.32;38.79
71299;BME280;59083;47.974;21.722;2023-03-14T14:52:16;99013.03;;;16.26;38.64
71299;BME280;59083;47.974;21.722;2023-03-14T14:55:19;99012.22;;;16.26;38.62
71299;BME280;59083;47.974;21.722;2023-03-14T14:58:27;99011.13;;;16.22;38.85
71299;BME280;59083;47.974;21.722;2023-03-14T15:01:39;99010.53;;;16.15;39.44
71299;BME280;59083;47.974;21.722;2023-03-14T15:04:40;99008.63;;;16.10;38.21
71299;BME280;59083;47.974;21.722;2023-03-14T15:07:42;98981.88;;;15.93;38.36
71299;BME280;59083;47.974;21.722;2023-03-14T15:10:43;98994.53;;;15.98;38.17
71299;BME280;59083;47.974;21.722;2023-03-14T15:13:44;98995.28;;;15.88;38.35
71299;BME280;59083;47.974;21.722;2023-03-14T15:16:45;98996.28;;;15.82;38.73
71299;BME280;59083;47.974;21.722;2023-03-14T15:19:47;98991.62;;;15.73;39.24
71299;BME280;59083;47.974;21.722;2023-03-14T15:22:48;98984.91;;;15.70;39.29
71299;BME280;59083;47.974;21.722;2023-03-14T15:25:49;98986.97;;;15.63;39.57
71299;BME280;59083;47.974;21.722;2023-03-14T15:28:50;98982.13;;;15.60;39.82
71299;BME280;59083;47.974;21.722;2023-03-14T15:31:52;98993.88;;;15.54;39.93
71299;BME280;59083;47.974;21.722;2023-03-14T15:34:56;98999.72;;;15.51;40.34
71299;BME280;59083;47.974;21.722;2023-03-14T15:37:58;99006.94;;;15.50;40.16
71299;BME280;59083;47.974;21.722;2023-03-14T15:40:59;99001.78;;;15.44;40.27
71299;BME280;59083;47.974;21.722;2023-03-14T15:44:00;98996.94;;;15.41;39.61
71299;BME280;59083;47.974;21.722;2023-03-14T15:47:02;99001.72;;;15.39;39.38
71299;BME280;59083;47.974;21.722;2023-03-14T15:50:03;99002.19;;;15.30;39.34
71299;BME280;59083;47.974;21.722;2023-03-14T15:53:04;99001.91;;;15.32;39.14
71299;BME280;59083;47.974;21.722;2023-03-14T15:56:07;98996.78;;;15.25;39.24
71299;BME280;59083;47.974;21.722;2023-03-14T15:59:11;99009.00;;;15.16;39.47
71299;BME280;59083;47.974;21.722;2023-03-14T16:02:13;98999.25;;;15.10;39.40
71299;BME280;59083;47.974;21.722;2023-03-14T16:05:14;99005.16;;;15.07;39.60
71299;BME280;59083;47.974;21.722;2023-03-14T16:08:15;99009.41;;;15.03;39.41
71299;BME280;59083;47.974;21.722;2023-03-14T16:11:17;99012.28;;;14.97;39.60
71299;BME280;59083;47.974;21.722;2023-03-14T16:14:18;99013.50;;;14.89;39.78
71299;BME280;59083;47.974;21.722;2023-03-14T16:17:19;99021.19;;;14.80;40.29
71299;BME280;59083;47.974;21.722;2023-03-14T16:20:21;99022.66;;;14.71;40.30
71299;BME280;59083;47.974;21.722;2023-03-14T16:23:23;99015.06;;;14.63;40.76
71299;BME280;59083;47.974;21.722;2023-03-14T16:26:25;99022.69;;;14.55;40.94
71299;BME280;59083;47.974;21.722;2023-03-14T16:29:26;99023.66;;;14.48;41.23
71299;BME280;59083;47.974;21.722;2023-03-14T16:32:28;99026.13;;;14.50;41.00
71299;BME280;59083;47.974;21.722;2023-03-14T16:35:29;99027.97;;;14.50;41.34
71299;BME280;59083;47.974;21.722;2023-03-14T16:38:31;99027.34;;;14.42;41.48
71299;BME280;59083;47.974;21.722;2023-03-14T16:41:33;99022.56;;;14.44;41.58
71299;BME280;59083;47.974;21.722;2023-03-14T16:44:35;99025.47;;;14.43;41.82
71299;BME280;59083;47.974;21.722;2023-03-14T16:47:36;99023.53;;;14.38;41.89
71299;BME280;59083;47.974;21.722;2023-03-14T16:50:39;99019.63;;;14.29;42.96
71299;BME280;59083;47.974;21.722;2023-03-14T16:53:41;99016.34;;;14.27;42.89